Terminal Aerodrome Forecast
Issued by NWS

Home | Current Version | Previous Version | Text Only | Print | Product List | Glossary On
Versions: 1 2 3 4 5 6 7 8 9 10 11 12 13 14 15 16 17
087
FTUS43 KOAX 231040 AAB
TAFBFF
TAF AMD
KBFF 231040Z 2311/2406 06015KT 3SM -SN BR OVC008
      TEMPO 2311/2313 1/2SM SN FG OVC005
     FM231300 07015G25KT 1/2SM SN FG OVC004
     FM232200 04014KT 2SM -SN OVC012=

USA.gov is the U.S. government's official web portal to all federal, state and local government web resources and services.